Roberto Viana

Chefscout - Criciuma
4 Apr 2027
Sonntag
Verarbeitung

Persönlichkeit

Anpassungsfähigkeit (16) Ehrgeiz (6) Kontroverse (2) Loyalität (2) Druck (6) Professionalität (12) Fairness (20) Temperament (17)

Profil

Trainerstil Demokratisch
Lizenz Kontinentale C
Entschlossenheit 6
Menschenführung 10
Motivation 12
Disziplin 7
Arbeitszufriedenheit
100%
Ermüdung
0%
Rolle Chefscout
Gehalt 16.9K p/W
Vertrag 14.03.2030

Leistung

Verhalten Gut
Trainingseffektivität
48%
Spielerentwicklung
20%
Verletzungsprävention
50%
Taktische Umsetzung
50%

Letzte Ereignisse

Nahm an einer Scouting-Besprechung teil jetzt
Nahm an einer Scouting-Besprechung teil jetzt
Spieler begutachtet jetzt
Nahm an einer Scouting-Besprechung teil 7T her
Nahm an einer Scouting-Besprechung teil 7T her
Spieler begutachtet 7T her
Spieler begutachtet 7T her
Spieler begutachtet 7T her

Aktuell beobachtet

178
Spieler Verein Status Fähigkeit Vertrauen Beobachtet Zuletzt beobachtet Letzte Stimme
Luis Fernando Santa Clara Aktiv 101 / 99 40% 4 02.04.2027 -
Sifiso Dala Platinum Stars Aktiv 93 / 87 40% 3 02.04.2027 -
Serge Daura Gazelle Garoua Aktiv 101 / 92 40% 4 02.04.2027 -
Kelian Baruti Liamba Estoril Praia Aktiv 98 / 92 40% 4 31.03.2027 -
Uchenna Ogundu FC Augsburg Aktiv 124 / 134 40% 1 31.03.2027 -
Jonathan Acquah WAFA Aktiv 83 / 75 40% 10 30.03.2027 -
Anas Alaoui Lecco Aktiv 88 / 102 40% 2 30.03.2027 -
Marcel Reguła Zaglebie Aktiv 108 / 110 40% 4 28.03.2027 -
Godbless Ayeke New Edubiase United Aktiv 75 / 74 40% 4 28.03.2027 -
Ruslan Myalkovskiy Lokomotiv Moscow Aktiv 93 / 102 40% 1 28.03.2027 -
Rodolfo Moreno Veracruz Aktiv 101 / 102 40% 8 26.03.2027 -
Dani Ángel Crawley Town Aktiv 100 / 98 40% 3 26.03.2027 -
Mathis Jangeal Famalicao Aktiv 105 / 107 40% 1 26.03.2027 -
Naledi Hlongwane Victoria United Aktiv 91 / 107 40% 6 25.03.2027 -
Yannik Wagner Heidenheim Aktiv 101 / 102 40% 2 25.03.2027 -
Evagoras Charalabous Anorthosis Aktiv 101 / 106 40% 2 25.03.2027 -
Samy Merheg Alverca Aktiv 115 / 112 40% 6 22.03.2027 -
Toni Tamarit Alverca Aktiv 120 / 122 40% 10 21.03.2027 -
Matvii Burenko Vorskla Aktiv 85 / 87 40% 4 21.03.2027 -
Dominik Baumgartner Mattersburg Aktiv 102 / 110 40% 1 20.03.2027 -
Markus Jensen Nacional Aktiv 103 / 117 40% 6 18.03.2027 -
Prince Chibuzor Emmanuel Zlin Aktiv 88 / 96 40% 2 18.03.2027 -
Tiago Pucciarelli FK Senica Aktiv 103 / 101 40% 10 16.03.2027 -
Roberto Iliev Slavia Sofia Aktiv 101 / 107 40% 5 16.03.2027 -
Ciprian Coman Pandurii Aktiv 118 / 113 40% 6 13.03.2027 -
Luke Baartman Chippa United Aktiv 101 / 113 40% 7 13.03.2027 -
Nathan Mbala FC Metz Aktiv 94 / 103 40% 3 12.03.2027 -
Uriël Van Aalst Willem II Aktiv 97 / 108 40% 6 12.03.2027 -
Moslem Anatouf ES Setif Aktiv 80 / 88 40% 3 11.03.2027 -
Dramane Kamagaté USM Alger Aktiv 102 / 107 40% 6 10.03.2027 -
Matvii Ponomarenko Dynamo Kyiv Aktiv 116 / 119 40% 5 09.03.2027 -
Rudi Almeida Famalicao Aktiv 81 / 92 40% 2 08.03.2027 -
Mattia Esposito Sorrento Aktiv 86 / 95 40% 2 08.03.2027 -
Dilan Neves Benfica Aktiv 75 / 92 40% 3 05.03.2027 -
Ichem Ferrah Pisa Aktiv 107 / 120 40% 1 05.03.2027 -
David Kalokoh Ajax Aktiv 120 / 126 40% 2 03.03.2027 -
Iwan Morgan Grimsby Town Aktiv 102 / 108 40% 2 28.02.2027 -
Maksym Uhryniuk Nyva Aktiv 79 / 83 40% 1 28.02.2027 -
Alagie Wally Veres Aktiv 82 / 101 40% 1 26.02.2027 -
Mateus Mide Porto Aktiv 99 / 105 40% 2 25.02.2027 -
Sonny Finch Grimsby Town Aktiv 88 / 95 40% 1 23.02.2027 -
Yacine Goudjil MC Oran Aktiv 92 / 103 40% 2 22.02.2027 -
Ben Ahmed Kohili Paradou Aktiv 112 / 105 40% 1 22.02.2027 -
Julián Vignolo Toulouse FC Aktiv 100 / 110 40% 1 20.02.2027 -
Anestis Mythou PAOK Aktiv 98 / 98 40% 2 19.02.2027 -
Luther Zwane Platinum Stars Aktiv 112 / 115 40% 7 17.02.2027 -
Joffrey Ngambaka Nguba Strogino Aktiv 82 / 77 40% 1 17.02.2027 -
Daniil Tepliakov Metalist Aktiv 95 / 86 40% 1 16.02.2027 -
Karem Zoabi Torreense Aktiv 95 / 105 40% 2 13.02.2027 -
Ognjen Bondžulić Mladost Lucani Aktiv 97 / 102 40% 1 11.02.2027 -
Asanele Shibe Inter Allies Aktiv 66 / 72 40% 2 10.02.2027 -
Dimitris Rallis Legia Aktiv 113 / 105 40% 1 10.02.2027 -
Ejike Opara Vitoria Guimaraes Aktiv 108 / 117 40% 2 29.01.2027 -
Michael Noumon Heart of Lions Aktiv 87 / 77 40% 1 28.01.2027 -
Xavier Biscayzacú Defensor Sporting Aktiv 129 / 131 40% 2 25.01.2027 -
Sergey Gaiduk Salyut Aktiv 77 / 83 40% 1 23.01.2027 -
Umar Abubakar Famalicao Aktiv 85 / 102 40% 1 23.01.2027 -
Adnan Courtois KV Oostende Aktiv 115 / 142 40% 5 13.01.2027 -
Trévis Dago Stade Lavallois Aktiv 113 / 113 40% 3 13.01.2027 -
Rayan Kolli Queens Park Rangers Aktiv 107 / 117 40% 2 03.01.2027 -
Lucca Prior Fortaleza Verloren 106 / 115 76% 1 21.12.2026 Befürworten
Nicolás Azambuja Danubio Aktiv 112 / 126 40% 1 20.12.2026 -
Jalal Abdullai Molde Aktiv 114 / 114 40% 1 16.12.2026 -
Patrick Preciado Deportivo Pasto Aktiv 103 / 104 40% 1 07.12.2026 -
Vinícius Lira Santos Aktiv 113 / 124 40% 1 30.11.2026 -
Luís Guilherme Sporting CP Aktiv 131 / 130 40% 1 30.11.2026 -
Duarte Cunha Porto Aktiv 86 / 101 40% 1 30.11.2026 -
Luccas Paraízo Leixões Aktiv 98 / 95 40% 4 29.11.2026 -
Martín Tejón Maritimo Aktiv 115 / 117 40% 4 29.11.2026 -
Renato Kayser Vitória Aktiv 124 / 125 40% 3 28.11.2026 -
Giorgos Koutsias Famalicao Aktiv 121 / 110 40% 4 28.11.2026 -
Pablo Fernández Leiria Aktiv 102 / 118 40% 1 28.11.2026 -
Juan Muñoz Leiria Aktiv 119 / 120 40% 8 27.11.2026 -
Dylan Nandín Arouca Aktiv 115 / 111 40% 4 27.11.2026 -
Raúl Alcaina Penafiel Aktiv 105 / 97 40% 4 26.11.2026 -
Marko Livaja Hajduk Split Aktiv 129 / 129 40% 1 26.11.2026 -
Alexandre Duville-Parsemain Moreirense Aktiv 101 / 118 40% 4 20.11.2026 -
Ángel Sepúlveda Guadalajara Aktiv 119 / 114 40% 3 20.11.2026 -
Mousa Meunier KV Oostende Aktiv 126 / 136 40% 2 20.11.2026 -
Mika Lusitânia Lourosa Aktiv 112 / 102 40% 4 19.11.2026 -
Santiago Rodríguez Gimnasia y Esgrima Aktiv 118 / 122 40% 6 19.11.2026 -
Anthony Carter Vizela Aktiv 108 / 104 40% 2 19.11.2026 -
Lucas Duarte Felgueiras Aktiv 105 / 111 40% 3 18.11.2026 -
Renzo López Ceará Aktiv 116 / 122 40% 1 18.11.2026 -
Assad Al Hamlawi Universitatea Craiova Aktiv 118 / 123 40% 2 17.11.2026 -
Zé Leite Oliveirense Aktiv 119 / 105 40% 6 16.11.2026 -
Gustavo Silva Juventude Aktiv 127 / 117 40% 1 16.11.2026 -
Alejandro Piedrahita Deportivo Pereira Aktiv 124 / 127 40% 5 15.11.2026 -
Nicolás Fernández Belgrano Abgelehnt 132 / 133 40% 7 15.11.2026 -
Yassin Fortuné Vizela Aktiv 97 / 105 40% 2 15.11.2026 -
Camilo Durán Bloemfontein Celtic Aktiv 122 / 112 40% 4 13.11.2026 -
Romarinho FC Nordsjaelland Aktiv 122 / 115 40% 5 12.11.2026 Beobachten
Denis Bouanga Los Angeles Football Club Aktiv 133 / 136 40% 1 12.11.2026 -
Alisson Safira Juventude Abgelehnt 123 / 126 40% 1 12.11.2026 -
Anthony Lozano Santos Laguna Aktiv 117 / 117 40% 3 11.11.2026 -
Peter Shalulile Mamelodi Sundowns Aktiv 125 / 124 40% 6 08.11.2026 -
Rui Pedro Chaves Aktiv 112 / 117 40% 4 05.11.2026 -
Alexander Díaz Deportivo Riestra Aktiv 116 / 117 40% 2 05.11.2026 -
Lucas Passerini Belgrano Aktiv 122 / 116 40% 3 05.11.2026 -
Tomané Tondela Aktiv 102 / 116 40% 2 04.11.2026 -
Kévin Zohi Torreense Aktiv 122 / 112 40% 6 04.11.2026 -
Antoine Griezmann Orlando City Aktiv 159 / 147 40% 4 01.11.2026 -
Jonás Acevedo Instituto Aktiv 119 / 115 40% 2 31.10.2026 -
Héctor Hernández Gil Vicente Aktiv 119 / 130 40% 1 31.10.2026 -
Keagan Mothiba SuperSport United Aktiv 121 / 113 40% 3 28.10.2026 -
Carles Gil New England Revolution Aktiv 136 / 129 40% 3 28.10.2026 -
Mohammed Bouldini Académico de Viseu Aktiv 122 / 119 40% 3 27.10.2026 -
Jhonatan Candia Barracas Central Aktiv 128 / 119 40% 2 26.10.2026 -
Brayan León Mamelodi Sundowns Aktiv 116 / 125 40% 1 26.10.2026 -
Alan Pinheiro Zadar Aktiv 92 / 102 40% 1 25.10.2026 -
Gabriel Novaes Nacional Aktiv 111 / 107 40% 1 22.10.2026 -
Diber Cambindo Leon Aktiv 136 / 132 40% 2 21.10.2026 -
Lucas Moura Sport Recife Aktiv 142 / 135 40% 2 20.10.2026 -
Tomás Molina Argentinos Juniors Aktiv 126 / 121 40% 2 20.10.2026 -
Jorge Obregón Deportivo Pasto Aktiv 114 / 110 40% 2 19.10.2026 -
Jefry Zapata Once Caldas Aktiv 122 / 119 40% 1 17.10.2026 -
Ruyery Blanco Alianza Petrolera Aktiv 109 / 108 40% 2 15.10.2026 -
André Lacximicant Estoril Praia Aktiv 113 / 104 40% 2 15.10.2026 -
Gustavo Torres Atletico Nacional Aktiv 122 / 113 40% 3 14.10.2026 -
Andrey Estupiñán Millonarios Aktiv 120 / 114 40% 1 14.10.2026 -
Yann Kitala Vizela Aktiv 98 / 100 40% 2 13.10.2026 -
Negueba Mirassol Aktiv 131 / 121 40% 1 13.10.2026 -
Bryan Limbombe Maritimo Aktiv 114 / 100 40% 3 08.10.2026 -
Gabriel Tigrão Dijon Aktiv 98 / 113 40% 1 06.10.2026 -
Gabriel Barbosa Farense Aktiv 110 / 118 40% 3 04.10.2026 -
Miguel Falé Pacos de Ferreira Aktiv 93 / 106 40% 1 04.10.2026 -
Luan Santos Imotski Aktiv 90 / 86 40% 1 03.10.2026 -
Franco Fagúndez Estudiantes Aktiv 118 / 111 40% 1 03.10.2026 -
Jáder Obrian Santa Fe Aktiv 116 / 115 40% 1 02.10.2026 -
Nélson Oliveira Vitoria Guimaraes Aktiv 124 / 110 40% 3 30.09.2026 -
Michael Barrios Once Caldas Aktiv 119 / 124 40% 2 30.09.2026 -
Alfredo Morelos Atletico Nacional Aktiv 128 / 129 40% 3 30.09.2026 -
Florián Monzón Atlas Aktiv 120 / 128 40% 1 26.09.2026 -
Mo Dauda Portimonense Aktiv 112 / 96 40% 2 25.09.2026 -
Leonardo Castro Millonarios Aktiv 120 / 115 40% 2 23.09.2026 -
Leandro Díaz Atlético Tucumán Aktiv 119 / 117 40% 1 23.09.2026 -
Arthur Caike Anderlecht Aktiv 108 / 121 40% 2 19.09.2026 -
Justo Giani Universidad Catolica Aktiv 125 / 123 40% 1 19.09.2026 -
Jair Silva Leiria Aktiv 119 / 100 40% 2 18.09.2026 -
Leandro Suhr Boston River Aktiv 119 / 122 40% 2 17.09.2026 -
Jorge Aguirre Torreense Aktiv 110 / 108 40% 2 16.09.2026 -
Jorge Meireles AVS Aktiv 119 / 123 40% 4 14.09.2026 -
Korede Osundina Casa Pia Aktiv 104 / 123 40% 2 13.09.2026 -
Rossi Young Boys Aktiv 123 / 121 40% 1 13.09.2026 -
Edwar López Deportes Tolima Aktiv 112 / 117 40% 1 13.09.2026 -
Léo Bonatini Brondby Aktiv 125 / 112 40% 5 12.09.2026 -
Paulinho Toluca Aktiv 140 / 147 40% 3 11.09.2026 -
Brian White Vancouver Whitecaps Aktiv 126 / 114 40% 1 09.09.2026 -
Alexandre Guedes Maritimo Aktiv 113 / 115 40% 1 08.09.2026 -
Michael Vadulli Audax Italiano Aktiv 113 / 105 40% 1 08.09.2026 -
Fernando Karanga Dinamo Moscow Aktiv 106 / 111 40% 3 07.09.2026 -
Myrto Uzuni Austin FC Aktiv 142 / 122 40% 1 06.09.2026 -
Juan Cruz de los Santos Nacional Aktiv 121 / 129 40% 1 05.09.2026 -
Carlos Eduardo Gil Vicente Aktiv 99 / 117 40% 1 03.09.2026 -
Marcos Paulo Juventude Aktiv 125 / 118 40% 2 31.08.2026 -
Ianis Stoica Estrela da Amadora Aktiv 120 / 106 40% 1 30.08.2026 -
Álex Arce Independiente Rivadavia Aktiv 129 / 130 40% 1 30.08.2026 -
Luis Muriel Junior Aktiv 130 / 128 40% 1 29.08.2026 -
Gabriel Taliari Juventude Aktiv 118 / 124 40% 1 26.08.2026 -
João Costa Santa Clara Aktiv 107 / 106 40% 1 24.08.2026 -
Agdon Leixões Aktiv 96 / 112 40% 1 21.08.2026 -
Ismael Díaz Leon Aktiv 130 / 124 40% 2 19.08.2026 -
Henry Addo Tondela Aktiv 101 / 103 40% 1 19.08.2026 -
Alípio Hatayspor Aktiv 98 / 115 40% 1 18.08.2026 -
Diego Duarte Nacional Aktiv 113 / 105 40% 1 16.08.2026 -
Luis Amarilla Cerro Porteno Aktiv 125 / 114 40% 1 14.08.2026 -
Hamilton AVS Aktiv 114 / 111 40% 1 14.08.2026 -
Khayon Edwards Estoril Praia Aktiv 100 / 115 40% 1 12.08.2026 -
Vinícius Lopes Santa Clara Aktiv 112 / 108 40% 2 11.08.2026 -
Matija Mitrović Vitoria Guimaraes Aktiv 104 / 119 40% 1 08.08.2026 -
Cédric Nuozzi Alverca Aktiv 101 / 117 40% 1 08.08.2026 -
Diego Dorregaray Farense Aktiv 98 / 111 40% 1 08.08.2026 -
João Vasco Lusitânia Lourosa Aktiv 104 / 99 40% 1 08.08.2026 -
Chris Wood Nottingham Forest Aktiv 144 / 144 40% 1 06.08.2026 -
José Bica Leixões Aktiv 97 / 99 40% 1 04.08.2026 -
Xavi Sintes Estoril Praia Aktiv 115 / 112 40% 1 01.08.2026 -
Pedro Amaral Rio Ave Aktiv 126 / 117 40% 1 01.08.2026 -
Christian Marques Tondela Aktiv 119 / 124 40% 1 01.08.2026 -